sensor_id;sensor_type;location;lat;lon;timestamp;pressure;altitude;pressure_sealevel;temperature;humidity
60099;BME280;62818;49.394;8.686;2023-03-04T00:00:55;101073.44;;;2.33;87.78
60099;BME280;62818;49.394;8.686;2023-03-04T00:01:56;101079.81;;;2.42;86.35
60099;BME280;62818;49.394;8.686;2023-03-04T00:02:56;101084.09;;;2.55;85.43
60099;BME280;62818;49.394;8.686;2023-03-04T00:03:57;101071.34;;;2.25;86.23
60099;BME280;62818;49.394;8.686;2023-03-04T00:04:57;101079.50;;;2.21;85.86
60099;BME280;62818;49.394;8.686;2023-03-04T00:05:58;101075.94;;;2.47;85.67
60099;BME280;62818;49.394;8.686;2023-03-04T00:06:58;101083.91;;;2.08;86.32
60099;BME280;62818;49.394;8.686;2023-03-04T00:07:59;101085.13;;;1.65;87.87
60099;BME280;62818;49.394;8.686;2023-03-04T00:08:59;101088.19;;;1.44;90.41
60099;BME280;62818;49.394;8.686;2023-03-04T00:10:00;101085.31;;;1.74;89.29
60099;BME280;62818;49.394;8.686;2023-03-04T00:11:00;101069.50;;;2.02;88.35
60099;BME280;62818;49.394;8.686;2023-03-04T00:12:01;101083.78;;;1.84;88.31
60099;BME280;62818;49.394;8.686;2023-03-04T00:13:02;101087.88;;;1.88;89.31
60099;BME280;62818;49.394;8.686;2023-03-04T00:14:02;101081.00;;;2.00;88.24
60099;BME280;62818;49.394;8.686;2023-03-04T00:15:03;101079.94;;;2.02;88.54
60099;BME280;62818;49.394;8.686;2023-03-04T00:16:04;101085.38;;;2.12;87.98
60099;BME280;62818;49.394;8.686;2023-03-04T00:17:04;101080.63;;;1.67;88.27
60099;BME280;62818;49.394;8.686;2023-03-04T00:18:06;101074.09;;;2.11;88.86
60099;BME280;62818;49.394;8.686;2023-03-04T00:19:06;101071.66;;;2.21;88.00
60099;BME280;62818;49.394;8.686;2023-03-04T00:20:07;101075.34;;;2.06;87.31
60099;BME280;62818;49.394;8.686;2023-03-04T00:21:08;101082.50;;;1.65;88.93
60099;BME280;62818;49.394;8.686;2023-03-04T00:22:09;101084.50;;;1.74;89.36
60099;BME280;62818;49.394;8.686;2023-03-04T00:23:09;101077.19;;;1.79;89.55
60099;BME280;62818;49.394;8.686;2023-03-04T00:24:10;101071.47;;;2.11;88.95
60099;BME280;62818;49.394;8.686;2023-03-04T00:25:10;101084.09;;;2.05;88.38
60099;BME280;62818;49.394;8.686;2023-03-04T00:26:11;101090.75;;;1.59;89.34
60099;BME280;62818;49.394;8.686;2023-03-04T00:27:12;101088.47;;;1.67;89.61
60099;BME280;62818;49.394;8.686;2023-03-04T00:28:13;101086.53;;;1.95;88.62
60099;BME280;62818;49.394;8.686;2023-03-04T00:29:13;101084.22;;;2.03;88.67
60099;BME280;62818;49.394;8.686;2023-03-04T00:30:14;101089.94;;;1.71;89.48
60099;BME280;62818;49.394;8.686;2023-03-04T00:31:14;101090.41;;;1.50;89.31
60099;BME280;62818;49.394;8.686;2023-03-04T00:32:15;101090.72;;;1.98;89.11
60099;BME280;62818;49.394;8.686;2023-03-04T00:33:17;101091.59;;;1.32;89.49
60099;BME280;62818;49.394;8.686;2023-03-04T00:34:18;101092.66;;;1.82;90.07
60099;BME280;62818;49.394;8.686;2023-03-04T00:35:19;101086.84;;;1.91;88.64
60099;BME280;62818;49.394;8.686;2023-03-04T00:36:19;101090.41;;;2.15;88.67
60099;BME280;62818;49.394;8.686;2023-03-04T00:37:19;101098.38;;;1.62;87.99
60099;BME280;62818;49.394;8.686;2023-03-04T00:38:20;101088.94;;;2.23;87.82
60099;BME280;62818;49.394;8.686;2023-03-04T00:39:20;101086.81;;;2.16;86.73
60099;BME280;62818;49.394;8.686;2023-03-04T00:40:21;101090.91;;;2.07;86.44
60099;BME280;62818;49.394;8.686;2023-03-04T00:41:21;101102.69;;;1.63;87.83
60099;BME280;62818;49.394;8.686;2023-03-04T00:42:22;101106.81;;;1.52;88.30
60099;BME280;62818;49.394;8.686;2023-03-04T00:43:22;101097.63;;;1.47;88.37
60099;BME280;62818;49.394;8.686;2023-03-04T00:44:23;101099.00;;;1.26;89.90
60099;BME280;62818;49.394;8.686;2023-03-04T00:45:23;101101.44;;;1.15;91.56
60099;BME280;62818;49.394;8.686;2023-03-04T00:46:24;101097.34;;;1.77;90.41
60099;BME280;62818;49.394;8.686;2023-03-04T00:47:24;101110.59;;;1.61;89.08
60099;BME280;62818;49.394;8.686;2023-03-04T00:48:25;101103.88;;;1.44;90.38
60099;BME280;62818;49.394;8.686;2023-03-04T00:49:25;101100.31;;;1.85;89.54
60099;BME280;62818;49.394;8.686;2023-03-04T00:50:26;101104.63;;;2.11;88.00
60099;BME280;62818;49.394;8.686;2023-03-04T00:51:27;101103.91;;;1.70;88.39
60099;BME280;62818;49.394;8.686;2023-03-04T00:52:27;101105.72;;;1.30;89.21
60099;BME280;62818;49.394;8.686;2023-03-04T00:53:27;101103.41;;;1.25;90.67
60099;BME280;62818;49.394;8.686;2023-03-04T00:54:28;101101.72;;;1.24;91.48
60099;BME280;62818;49.394;8.686;2023-03-04T00:55:29;101108.09;;;1.60;90.85
60099;BME280;62818;49.394;8.686;2023-03-04T00:56:29;101106.69;;;1.41;90.50
60099;BME280;62818;49.394;8.686;2023-03-04T00:57:30;101105.53;;;1.45;90.55
60099;BME280;62818;49.394;8.686;2023-03-04T00:58:30;101107.69;;;1.66;90.87
60099;BME280;62818;49.394;8.686;2023-03-04T00:59:31;101102.75;;;1.22;91.14
60099;BME280;62818;49.394;8.686;2023-03-04T01:00:32;101109.69;;;1.75;90.41
60099;BME280;62818;49.394;8.686;2023-03-04T01:01:32;101102.69;;;1.63;89.85
60099;BME280;62818;49.394;8.686;2023-03-04T01:02:33;101102.09;;;1.45;89.96
60099;BME280;62818;49.394;8.686;2023-03-04T01:03:34;101108.81;;;1.22;91.07
60099;BME280;62818;49.394;8.686;2023-03-04T01:04:35;101101.59;;;1.52;91.26
60099;BME280;62818;49.394;8.686;2023-03-04T01:05:36;101109.84;;;1.20;91.63
60099;BME280;62818;49.394;8.686;2023-03-04T01:06:36;101104.75;;;1.04;92.08
60099;BME280;62818;49.394;8.686;2023-03-04T01:07:37;101104.47;;;1.35;92.52
60099;BME280;62818;49.394;8.686;2023-03-04T01:08:38;101108.16;;;1.45;91.60
60099;BME280;62818;49.394;8.686;2023-03-04T01:09:39;101094.75;;;1.77;89.91
60099;BME280;62818;49.394;8.686;2023-03-04T01:10:39;101107.22;;;1.46;89.40
60099;BME280;62818;49.394;8.686;2023-03-04T01:12:08;101100.78;;;1.25;91.48
60099;BME280;62818;49.394;8.686;2023-03-04T01:13:27;101102.84;;;1.20;91.45
60099;BME280;62818;49.394;8.686;2023-03-04T01:14:27;101101.81;;;1.49;91.61
60099;BME280;62818;49.394;8.686;2023-03-04T01:15:28;101104.94;;;1.55;90.00
60099;BME280;62818;49.394;8.686;2023-03-04T01:16:29;101105.16;;;1.52;91.17
60099;BME280;62818;49.394;8.686;2023-03-04T01:17:29;101096.75;;;1.34;91.70
60099;BME280;62818;49.394;8.686;2023-03-04T01:18:30;101098.75;;;1.16;91.57
60099;BME280;62818;49.394;8.686;2023-03-04T01:19:30;101098.84;;;1.41;92.05
60099;BME280;62818;49.394;8.686;2023-03-04T01:20:31;101101.31;;;1.30;90.98
60099;BME280;62818;49.394;8.686;2023-03-04T01:21:31;101098.09;;;1.13;92.00
60099;BME280;62818;49.394;8.686;2023-03-04T01:22:32;101099.72;;;1.55;91.17
60099;BME280;62818;49.394;8.686;2023-03-04T01:23:33;101096.63;;;1.09;91.57
60099;BME280;62818;49.394;8.686;2023-03-04T01:24:33;101092.44;;;1.06;91.42
60099;BME280;62818;49.394;8.686;2023-03-04T01:25:34;101093.03;;;1.50;91.00
60099;BME280;62818;49.394;8.686;2023-03-04T01:26:34;101093.41;;;0.91;91.63
60099;BME280;62818;49.394;8.686;2023-03-04T01:27:35;101094.22;;;1.32;92.37
60099;BME280;62818;49.394;8.686;2023-03-04T01:28:35;101093.13;;;1.22;91.38
60099;BME280;62818;49.394;8.686;2023-03-04T01:29:36;101090.84;;;1.30;91.84
60099;BME280;62818;49.394;8.686;2023-03-04T01:30:36;101093.91;;;1.37;91.64
60099;BME280;62818;49.394;8.686;2023-03-04T01:31:37;101087.25;;;1.45;91.50
60099;BME280;62818;49.394;8.686;2023-03-04T01:32:37;101087.63;;;1.00;92.00
60099;BME280;62818;49.394;8.686;2023-03-04T01:33:38;101089.25;;;1.15;91.89
60099;BME280;62818;49.394;8.686;2023-03-04T01:34:38;101094.88;;;1.09;91.79
60099;BME280;62818;49.394;8.686;2023-03-04T01:35:39;101088.91;;;1.07;93.26
60099;BME280;62818;49.394;8.686;2023-03-04T01:36:39;101092.81;;;1.41;91.54
60099;BME280;62818;49.394;8.686;2023-03-04T01:37:40;101086.72;;;1.40;91.05
60099;BME280;62818;49.394;8.686;2023-03-04T01:38:40;101086.91;;;1.37;90.61
60099;BME280;62818;49.394;8.686;2023-03-04T01:39:41;101084.91;;;1.28;91.41
60099;BME280;62818;49.394;8.686;2023-03-04T01:40:41;101086.03;;;1.64;91.50
60099;BME280;62818;49.394;8.686;2023-03-04T01:41:42;101085.44;;;1.33;89.97
60099;BME280;62818;49.394;8.686;2023-03-04T01:42:43;101077.88;;;1.16;92.39
60099;BME280;62818;49.394;8.686;2023-03-04T01:43:44;101081.97;;;1.60;91.28
60099;BME280;62818;49.394;8.686;2023-03-04T01:44:45;101082.09;;;1.31;91.02
60099;BME280;62818;49.394;8.686;2023-03-04T01:45:48;101077.66;;;1.19;91.73
60099;BME280;62818;49.394;8.686;2023-03-04T01:46:52;101068.16;;;1.58;91.56
60099;BME280;62818;49.394;8.686;2023-03-04T01:47:54;101078.91;;;1.40;90.02
60099;BME280;62818;49.394;8.686;2023-03-04T01:48:54;101078.94;;;1.00;91.24
60099;BME280;62818;49.394;8.686;2023-03-04T01:49:56;101079.44;;;0.92;93.03
60099;BME280;62818;49.394;8.686;2023-03-04T01:50:57;101089.34;;;0.73;93.70
60099;BME280;62818;49.394;8.686;2023-03-04T01:52:02;101071.69;;;0.91;92.95
60099;BME280;62818;49.394;8.686;2023-03-04T01:53:03;101076.44;;;0.98;93.92
60099;BME280;62818;49.394;8.686;2023-03-04T01:54:03;101072.69;;;1.29;92.69
60099;BME280;62818;49.394;8.686;2023-03-04T01:55:10;101077.00;;;1.30;91.63
60099;BME280;62818;49.394;8.686;2023-03-04T01:56:19;101073.91;;;0.70;93.01
60099;BME280;62818;49.394;8.686;2023-03-04T01:57:24;101072.00;;;1.13;94.16
60099;BME280;62818;49.394;8.686;2023-03-04T01:58:28;101079.31;;;1.08;93.12
60099;BME280;62818;49.394;8.686;2023-03-04T01:59:30;101078.72;;;0.90;92.98
60099;BME280;62818;49.394;8.686;2023-03-04T02:00:32;101068.72;;;1.23;92.90
60099;BME280;62818;49.394;8.686;2023-03-04T02:01:34;101071.66;;;1.31;91.91
60099;BME280;62818;49.394;8.686;2023-03-04T02:02:35;101070.06;;;1.56;92.10
60099;BME280;62818;49.394;8.686;2023-03-04T02:03:36;101068.03;;;1.46;90.75
60099;BME280;62818;49.394;8.686;2023-03-04T02:04:38;101065.47;;;1.32;91.38
60099;BME280;62818;49.394;8.686;2023-03-04T02:05:44;101063.34;;;1.12;92.82
60099;BME280;62818;49.394;8.686;2023-03-04T02:06:47;101061.19;;;0.78;92.51
60099;BME280;62818;49.394;8.686;2023-03-04T02:07:51;101061.81;;;0.96;93.09
60099;BME280;62818;49.394;8.686;2023-03-04T02:08:54;101067.56;;;0.60;94.50
60099;BME280;62818;49.394;8.686;2023-03-04T02:09:54;101061.25;;;1.17;94.08
60099;BME280;62818;49.394;8.686;2023-03-04T02:10:55;101065.19;;;1.10;93.38
60099;BME280;62818;49.394;8.686;2023-03-04T02:11:56;101063.19;;;1.01;93.41
60099;BME280;62818;49.394;8.686;2023-03-04T02:12:58;101061.91;;;1.47;92.42
60099;BME280;62818;49.394;8.686;2023-03-04T02:14:00;101062.75;;;0.95;92.45
60099;BME280;62818;49.394;8.686;2023-03-04T02:15:02;101058.31;;;1.09;92.80
60099;BME280;62818;49.394;8.686;2023-03-04T02:16:03;101061.00;;;1.34;92.09
60099;BME280;62818;49.394;8.686;2023-03-04T02:17:10;101062.22;;;1.56;91.27
60099;BME280;62818;49.394;8.686;2023-03-04T02:18:17;101058.44;;;0.67;92.48
60099;BME280;62818;49.394;8.686;2023-03-04T02:19:55;101054.09;;;0.80;93.23
60099;BME280;62818;49.394;8.686;2023-03-04T02:22:12;101057.59;;;0.66;94.25
60099;BME280;62818;49.394;8.686;2023-03-04T02:24:32;101056.81;;;0.79;93.54
60099;BME280;62818;49.394;8.686;2023-03-04T02:25:51;101058.44;;;1.08;93.53
60099;BME280;62818;49.394;8.686;2023-03-04T02:27:09;101061.19;;;0.92;94.03
60099;BME280;62818;49.394;8.686;2023-03-04T02:28:10;101056.00;;;1.05;93.96
60099;BME280;62818;49.394;8.686;2023-03-04T02:29:12;101056.91;;;1.04;93.07
60099;BME280;62818;49.394;8.686;2023-03-04T02:30:16;101056.41;;;1.25;93.07
60099;BME280;62818;49.394;8.686;2023-03-04T02:31:30;101056.25;;;0.73;93.60
60099;BME280;62818;49.394;8.686;2023-03-04T02:32:33;101056.31;;;1.39;92.95
60099;BME280;62818;49.394;8.686;2023-03-04T02:33:33;101054.47;;;0.88;92.69
60099;BME280;62818;49.394;8.686;2023-03-04T02:34:34;101056.81;;;0.79;93.20
60099;BME280;62818;49.394;8.686;2023-03-04T02:35:35;101055.72;;;1.09;93.72
60099;BME280;62818;49.394;8.686;2023-03-04T02:36:36;101052.44;;;1.32;92.75
60099;BME280;62818;49.394;8.686;2023-03-04T02:37:38;101050.19;;;0.87;93.11
60099;BME280;62818;49.394;8.686;2023-03-04T02:38:39;101058.16;;;0.98;94.13
60099;BME280;62818;49.394;8.686;2023-03-04T02:39:42;101054.78;;;0.84;93.96
60099;BME280;62818;49.394;8.686;2023-03-04T02:40:46;101052.94;;;0.98;92.91
60099;BME280;62818;49.394;8.686;2023-03-04T02:41:52;101056.25;;;1.14;93.13
60099;BME280;62818;49.394;8.686;2023-03-04T02:42:54;101064.59;;;1.46;92.06
60099;BME280;62818;49.394;8.686;2023-03-04T02:43:57;101052.66;;;1.03;91.60
60099;BME280;62818;49.394;8.686;2023-03-04T02:44:59;101059.63;;;1.02;91.95
60099;BME280;62818;49.394;8.686;2023-03-04T02:46:00;101055.06;;;0.65;94.19
60099;BME280;62818;49.394;8.686;2023-03-04T02:47:02;101049.19;;;1.02;93.47
60099;BME280;62818;49.394;8.686;2023-03-04T02:48:05;101057.47;;;0.82;93.08
60099;BME280;62818;49.394;8.686;2023-03-04T02:49:06;101053.31;;;0.51;94.84
60099;BME280;62818;49.394;8.686;2023-03-04T02:50:08;101042.09;;;0.37;95.86
60099;BME280;62818;49.394;8.686;2023-03-04T02:51:09;101054.81;;;0.55;95.93
60099;BME280;62818;49.394;8.686;2023-03-04T02:52:18;101047.22;;;0.79;95.08
60099;BME280;62818;49.394;8.686;2023-03-04T02:53:21;101048.88;;;0.39;95.67
60099;BME280;62818;49.394;8.686;2023-03-04T02:54:24;101050.31;;;0.57;96.32
60099;BME280;62818;49.394;8.686;2023-03-04T02:55:24;101050.34;;;0.98;94.80
60099;BME280;62818;49.394;8.686;2023-03-04T02:56:25;101048.78;;;1.08;94.69
60099;BME280;62818;49.394;8.686;2023-03-04T02:57:25;101049.25;;;0.88;94.49
60099;BME280;62818;49.394;8.686;2023-03-04T02:58:26;101046.44;;;0.91;93.42
60099;BME280;62818;49.394;8.686;2023-03-04T02:59:27;101051.84;;;0.61;94.82
60099;BME280;62818;49.394;8.686;2023-03-04T03:00:28;101044.50;;;0.81;94.62
60099;BME280;62818;49.394;8.686;2023-03-04T03:01:29;101052.50;;;0.92;94.63
60099;BME280;62818;49.394;8.686;2023-03-04T03:02:30;101045.09;;;0.71;94.29
60099;BME280;62818;49.394;8.686;2023-03-04T03:03:30;101043.16;;;0.61;94.61
60099;BME280;62818;49.394;8.686;2023-03-04T03:04:31;101036.38;;;0.58;94.97
60099;BME280;62818;49.394;8.686;2023-03-04T03:05:34;101043.78;;;0.64;94.76
60099;BME280;62818;49.394;8.686;2023-03-04T03:06:36;101043.09;;;1.16;94.61
60099;BME280;62818;49.394;8.686;2023-03-04T03:07:36;101045.31;;;1.34;92.46
60099;BME280;62818;49.394;8.686;2023-03-04T03:08:37;101042.94;;;0.78;92.43
60099;BME280;62818;49.394;8.686;2023-03-04T03:09:37;101038.06;;;0.45;94.51
60099;BME280;62818;49.394;8.686;2023-03-04T03:10:38;101042.59;;;0.70;95.57
60099;BME280;62818;49.394;8.686;2023-03-04T03:11:38;101037.31;;;0.84;95.40
60099;BME280;62818;49.394;8.686;2023-03-04T03:12:39;101041.56;;;0.99;95.02
60099;BME280;62818;49.394;8.686;2023-03-04T03:13:40;101039.03;;;1.24;93.05
60099;BME280;62818;49.394;8.686;2023-03-04T03:14:40;101042.75;;;1.08;94.07
60099;BME280;62818;49.394;8.686;2023-03-04T03:15:41;101039.81;;;0.59;94.06
60099;BME280;62818;49.394;8.686;2023-03-04T03:16:41;101036.47;;;0.43;95.53
60099;BME280;62818;49.394;8.686;2023-03-04T03:17:42;101040.78;;;0.44;96.40
60099;BME280;62818;49.394;8.686;2023-03-04T03:18:43;101039.00;;;0.30;96.74
60099;BME280;62818;49.394;8.686;2023-03-04T03:19:43;101035.22;;;0.22;97.23
60099;BME280;62818;49.394;8.686;2023-03-04T03:20:44;101042.47;;;0.31;97.22
60099;BME280;62818;49.394;8.686;2023-03-04T03:21:44;101033.69;;;0.46;97.48
60099;BME280;62818;49.394;8.686;2023-03-04T03:22:45;101036.88;;;1.04;95.79
60099;BME280;62818;49.394;8.686;2023-03-04T03:23:46;101036.00;;;0.91;93.72
60099;BME280;62818;49.394;8.686;2023-03-04T03:24:47;101037.78;;;0.50;94.36
60099;BME280;62818;49.394;8.686;2023-03-04T03:25:47;101038.06;;;0.86;95.52
60099;BME280;62818;49.394;8.686;2023-03-04T03:26:47;101035.22;;;1.03;94.25
60099;BME280;62818;49.394;8.686;2023-03-04T03:27:48;101035.69;;;0.69;93.98
60099;BME280;62818;49.394;8.686;2023-03-04T03:28:51;101040.38;;;0.50;94.75
60099;BME280;62818;49.394;8.686;2023-03-04T03:29:52;101033.81;;;0.71;94.79
60099;BME280;62818;49.394;8.686;2023-03-04T03:30:53;101034.72;;;0.43;94.78
60099;BME280;62818;49.394;8.686;2023-03-04T03:31:54;101039.81;;;0.45;95.75
60099;BME280;62818;49.394;8.686;2023-03-04T03:32:55;101034.81;;;0.83;94.51
60099;BME280;62818;49.394;8.686;2023-03-04T03:33:56;101038.03;;;1.00;94.03
60099;BME280;62818;49.394;8.686;2023-03-04T03:34:56;101039.75;;;0.87;93.33
60099;BME280;62818;49.394;8.686;2023-03-04T03:35:57;101038.63;;;0.36;94.58
60099;BME280;62818;49.394;8.686;2023-03-04T03:36:57;101042.69;;;0.95;94.81
60099;BME280;62818;49.394;8.686;2023-03-04T03:37:58;101039.41;;;1.06;92.83
60099;BME280;62818;49.394;8.686;2023-03-04T03:38:58;101043.19;;;1.14;92.68
60099;BME280;62818;49.394;8.686;2023-03-04T03:39:59;101047.75;;;1.11;91.55
60099;BME280;62818;49.394;8.686;2023-03-04T03:40:59;101040.63;;;0.73;92.22
60099;BME280;62818;49.394;8.686;2023-03-04T03:42:00;101040.38;;;0.50;93.50
60099;BME280;62818;49.394;8.686;2023-03-04T03:43:00;101040.50;;;0.75;93.40
60099;BME280;62818;49.394;8.686;2023-03-04T03:44:01;101038.94;;;0.99;92.89
60099;BME280;62818;49.394;8.686;2023-03-04T03:45:02;101038.81;;;0.88;92.26
60099;BME280;62818;49.394;8.686;2023-03-04T03:46:03;101039.25;;;0.68;93.88
60099;BME280;62818;49.394;8.686;2023-03-04T03:47:03;101045.06;;;1.12;92.69
60099;BME280;62818;49.394;8.686;2023-03-04T03:48:04;101043.72;;;0.66;92.42
60099;BME280;62818;49.394;8.686;2023-03-04T03:49:04;101043.09;;;0.34;94.15
60099;BME280;62818;49.394;8.686;2023-03-04T03:50:05;101041.69;;;0.29;94.59
60099;BME280;62818;49.394;8.686;2023-03-04T03:51:06;101050.59;;;0.81;94.73
60099;BME280;62818;49.394;8.686;2023-03-04T03:52:07;101048.59;;;1.11;92.19
60099;BME280;62818;49.394;8.686;2023-03-04T03:53:08;101046.84;;;0.71;92.33
60099;BME280;62818;49.394;8.686;2023-03-04T03:54:08;101057.97;;;1.01;92.65
60099;BME280;62818;49.394;8.686;2023-03-04T03:55:09;101058.38;;;0.26;93.23
60099;BME280;62818;49.394;8.686;2023-03-04T03:56:10;101056.50;;;0.42;94.54
60099;BME280;62818;49.394;8.686;2023-03-04T03:57:10;101057.34;;;0.43;94.14
60099;BME280;62818;49.394;8.686;2023-03-04T03:58:11;101057.88;;;0.62;94.88
60099;BME280;62818;49.394;8.686;2023-03-04T03:59:11;101060.22;;;0.52;94.71
60099;BME280;62818;49.394;8.686;2023-03-04T04:00:12;101056.78;;;0.10;95.58
60099;BME280;62818;49.394;8.686;2023-03-04T04:01:13;101056.78;;;0.10;96.70
60099;BME280;62818;49.394;8.686;2023-03-04T04:02:14;101049.78;;;-0.04;97.37
60099;BME280;62818;49.394;8.686;2023-03-04T04:03:14;101064.41;;;0.55;97.16
60099;BME280;62818;49.394;8.686;2023-03-04T04:04:16;101054.56;;;0.18;96.71
60099;BME280;62818;49.394;8.686;2023-03-04T04:05:16;101053.72;;;-0.11;98.33
60099;BME280;62818;49.394;8.686;2023-03-04T04:06:17;101058.63;;;-0.21;99.08
60099;BME280;62818;49.394;8.686;2023-03-04T04:07:18;101061.81;;;0.41;98.67
60099;BME280;62818;49.394;8.686;2023-03-04T04:08:18;101060.88;;;0.14;98.25
60099;BME280;62818;49.394;8.686;2023-03-04T04:09:19;101064.25;;;0.02;99.31
60099;BME280;62818;49.394;8.686;2023-03-04T04:10:19;101062.34;;;0.60;98.59
60099;BME280;62818;49.394;8.686;2023-03-04T04:11:21;101059.00;;;0.58;97.43
60099;BME280;62818;49.394;8.686;2023-03-04T04:12:21;101049.41;;;0.58;96.55
60099;BME280;62818;49.394;8.686;2023-03-04T04:13:22;101057.78;;;0.63;97.45
60099;BME280;62818;49.394;8.686;2023-03-04T04:14:23;101070.34;;;0.71;95.68
60099;BME280;62818;49.394;8.686;2023-03-04T04:15:23;101057.53;;;0.26;96.93
60099;BME280;62818;49.394;8.686;2023-03-04T04:16:24;101058.47;;;0.11;98.17
60099;BME280;62818;49.394;8.686;2023-03-04T04:17:24;101062.75;;;0.12;99.23
60099;BME280;62818;49.394;8.686;2023-03-04T04:18:25;101057.00;;;0.35;99.55
60099;BME280;62818;49.394;8.686;2023-03-04T04:19:26;101055.78;;;0.26;99.08
60099;BME280;62818;49.394;8.686;2023-03-04T04:20:26;101058.00;;;0.04;99.21
60099;BME280;62818;49.394;8.686;2023-03-04T04:21:27;101053.25;;;0.25;99.38
60099;BME280;62818;49.394;8.686;2023-03-04T04:22:27;101057.16;;;0.04;99.66
60099;BME280;62818;49.394;8.686;2023-03-04T04:23:28;101056.78;;;0.52;99.73
60099;BME280;62818;49.394;8.686;2023-03-04T04:24:28;101053.78;;;0.58;97.56
60099;BME280;62818;49.394;8.686;2023-03-04T04:25:29;101045.81;;;0.19;98.35
60099;BME280;62818;49.394;8.686;2023-03-04T04:26:29;101053.63;;;0.33;98.53
60099;BME280;62818;49.394;8.686;2023-03-04T04:27:30;101058.47;;;0.11;99.17
60099;BME280;62818;49.394;8.686;2023-03-04T04:28:31;101047.97;;;0.26;99.95
60099;BME280;62818;49.394;8.686;2023-03-04T04:29:31;101053.72;;;0.59;98.54
60099;BME280;62818;49.394;8.686;2023-03-04T04:30:32;101052.13;;;0.57;96.65
60099;BME280;62818;49.394;8.686;2023-03-04T04:31:33;101054.56;;;0.32;97.60
60099;BME280;62818;49.394;8.686;2023-03-04T04:32:34;101053.25;;;0.25;98.13
60099;BME280;62818;49.394;8.686;2023-03-04T04:33:35;101053.78;;;0.58;97.29
60099;BME280;62818;49.394;8.686;2023-03-04T04:34:36;101057.00;;;0.35;97.50
60099;BME280;62818;49.394;8.686;2023-03-04T04:35:37;101049.34;;;0.87;97.69
60099;BME280;62818;49.394;8.686;2023-03-04T04:36:40;101056.41;;;0.44;96.86
60099;BME280;62818;49.394;8.686;2023-03-04T04:37:41;101051.09;;;0.31;97.73
60099;BME280;62818;49.394;8.686;2023-03-04T04:38:42;101055.28;;;0.48;98.24
60099;BME280;62818;49.394;8.686;2023-03-04T04:39:43;101055.25;;;0.62;97.76
60099;BME280;62818;49.394;8.686;2023-03-04T04:40:43;101053.06;;;0.42;97.22
60099;BME280;62818;49.394;8.686;2023-03-04T04:41:45;101056.50;;;0.42;98.10
60099;BME280;62818;49.394;8.686;2023-03-04T04:42:45;101058.47;;;0.39;98.31
60099;BME280;62818;49.394;8.686;2023-03-04T04:43:46;101056.59;;;0.55;98.00
60099;BME280;62818;49.394;8.686;2023-03-04T04:44:47;101067.63;;;1.13;96.78
60099;BME280;62818;49.394;8.686;2023-03-04T04:45:47;101058.59;;;0.64;95.72
60099;BME280;62818;49.394;8.686;2023-03-04T04:46:47;101051.03;;;0.33;97.19
60099;BME280;62818;49.394;8.686;2023-03-04T04:47:48;101052.34;;;0.26;98.11
60099;BME280;62818;49.394;8.686;2023-03-04T04:48:48;101054.56;;;0.46;98.05
60099;BME280;62818;49.394;8.686;2023-03-04T04:49:49;101053.72;;;0.86;97.02
60099;BME280;62818;49.394;8.686;2023-03-04T04:50:54;101062.69;;;0.82;95.31
60099;BME280;62818;49.394;8.686;2023-03-04T04:51:55;101059.91;;;0.71;96.18
60099;BME280;62818;49.394;8.686;2023-03-04T04:52:55;101050.44;;;0.56;96.50
60099;BME280;62818;49.394;8.686;2023-03-04T04:53:57;101059.00;;;0.58;97.63
60099;BME280;62818;49.394;8.686;2023-03-04T04:54:59;101056.16;;;0.75;95.93
60099;BME280;62818;49.394;8.686;2023-03-04T04:56:00;101054.97;;;0.66;96.58
60099;BME280;62818;49.394;8.686;2023-03-04T04:57:08;101061.31;;;1.03;95.33
60099;BME280;62818;49.394;8.686;2023-03-04T04:58:08;101051.09;;;0.31;96.23
60099;BME280;62818;49.394;8.686;2023-03-04T04:59:09;101049.91;;;0.23;97.41
60099;BME280;62818;49.394;8.686;2023-03-04T05:00:10;101059.28;;;0.67;98.61
60099;BME280;62818;49.394;8.686;2023-03-04T05:01:11;101059.25;;;1.08;96.04
60099;BME280;62818;49.394;8.686;2023-03-04T05:02:13;101063.38;;;0.57;94.93
60099;BME280;62818;49.394;8.686;2023-03-04T05:03:13;101062.56;;;0.15;96.97
60099;BME280;62818;49.394;8.686;2023-03-04T05:04:14;101054.00;;;-0.02;98.46
60099;BME280;62818;49.394;8.686;2023-03-04T05:05:14;101058.72;;;0.62;98.02
60099;BME280;62818;49.394;8.686;2023-03-04T05:06:15;101057.34;;;0.43;96.24
60099;BME280;62818;49.394;8.686;2023-03-04T05:07:16;101068.09;;;0.79;96.37
60099;BME280;62818;49.394;8.686;2023-03-04T05:08:16;101063.69;;;0.39;95.69
60099;BME280;62818;49.394;8.686;2023-03-04T05:09:17;101063.97;;;0.48;97.11
60099;BME280;62818;49.394;8.686;2023-03-04T05:10:18;101063.22;;;0.18;97.18
60099;BME280;62818;49.394;8.686;2023-03-04T05:11:19;101068.13;;;-0.06;98.10
60099;BME280;62818;49.394;8.686;2023-03-04T05:12:20;101064.94;;;-0.11;99.10
60099;BME280;62818;49.394;8.686;2023-03-04T05:13:21;101064.63;;;-0.05;99.08
60099;BME280;62818;49.394;8.686;2023-03-04T05:14:24;101064.81;;;0.07;99.51
60099;BME280;62818;49.394;8.686;2023-03-04T05:15:25;101064.53;;;0.39;98.93
60099;BME280;62818;49.394;8.686;2023-03-04T05:16:25;101074.06;;;0.67;97.60
60099;BME280;62818;49.394;8.686;2023-03-04T05:17:26;101075.31;;;0.61;95.98
60099;BME280;62818;49.394;8.686;2023-03-04T05:18:26;101071.22;;;0.15;97.21
60099;BME280;62818;49.394;8.686;2023-03-04T05:19:28;101075.03;;;0.10;98.35
60099;BME280;62818;49.394;8.686;2023-03-04T05:20:28;101077.28;;;0.02;99.19
60099;BME280;62818;49.394;8.686;2023-03-04T05:21:29;101073.34;;;-0.06;99.66
60099;BME280;62818;49.394;8.686;2023-03-04T05:22:29;101070.91;;;0.62;99.68
60099;BME280;62818;49.394;8.686;2023-03-04T05:23:36;101072.88;;;0.99;96.87
60099;BME280;62818;49.394;8.686;2023-03-04T05:24:38;101073.16;;;0.54;96.24
60099;BME280;62818;49.394;8.686;2023-03-04T05:25:38;101068.16;;;0.37;97.23
60099;BME280;62818;49.394;8.686;2023-03-04T05:26:39;101067.72;;;0.85;97.24
60099;BME280;62818;49.394;8.686;2023-03-04T05:27:40;101077.28;;;0.44;96.70
60099;BME280;62818;49.394;8.686;2023-03-04T05:28:41;101066.28;;;0.53;97.81